createdAt,value
2023-03-11T00:01:08.627Z,100899.44
2023-03-11T00:03:35.877Z,100942.53
2023-03-11T00:06:04.454Z,100907.34
2023-03-11T00:08:31.746Z,100969.81
2023-03-11T00:11:00.671Z,100974.22
2023-03-11T00:13:28.896Z,100957.09
2023-03-11T00:15:58.431Z,100907.41
2023-03-11T00:18:27.397Z,100955.56
2023-03-11T00:20:58.517Z,100928.03
2023-03-11T00:23:27.744Z,100926.28
2023-03-11T00:25:55.362Z,100972.06
2023-03-11T00:28:26.197Z,100935.09
2023-03-11T00:30:53.630Z,100944.69
2023-03-11T00:33:20.826Z,100983.38
2023-03-11T00:35:48.265Z,100933.66
2023-03-11T00:38:16.806Z,101000.59
2023-03-11T00:40:46.055Z,100968.81
2023-03-11T00:43:14.949Z,101006.63
2023-03-11T00:45:45.073Z,101016.16
2023-03-11T00:48:12.642Z,100982.69
2023-03-11T00:50:40.583Z,100990.66
2023-03-11T00:53:09.260Z,100997.47
2023-03-11T00:55:37.451Z,100957.91
2023-03-11T00:58:06.616Z,100970.75
2023-03-11T01:00:34.653Z,100978.53
2023-03-11T01:03:02.355Z,101014.84
2023-03-11T01:05:32.160Z,101020.06
2023-03-11T01:08:00.261Z,101000.09
2023-03-11T01:10:29.743Z,100969.22
2023-03-11T01:12:57.217Z,101012.19
2023-03-11T01:15:30.230Z,101011.34
2023-03-11T01:17:57.307Z,101011.56
2023-03-11T01:20:25.674Z,101048.38
2023-03-11T01:22:52.707Z,101024.31
2023-03-11T01:25:21.587Z,100977.06
2023-03-11T01:27:50.544Z,101042.22
2023-03-11T01:30:26.148Z,100994.41
2023-03-11T01:32:55.778Z,101029.31
2023-03-11T01:35:26.141Z,101062.16
2023-03-11T01:37:54.205Z,100989.84
2023-03-11T01:40:37.809Z,101053.41
2023-03-11T01:43:27.143Z,101064.72
2023-03-11T01:45:54.447Z,101072.50
2023-03-11T01:48:21.705Z,101025.28
2023-03-11T01:50:52.138Z,101069.81
2023-03-11T01:53:20.947Z,101008.97
2023-03-11T01:55:48.756Z,101002.13
2023-03-11T01:58:25.473Z,101061.41
2023-03-11T02:00:53.358Z,101039.25
2023-03-11T02:03:37.874Z,101038.34
2023-03-11T02:06:10.950Z,101028.16
2023-03-11T02:08:41.052Z,101033.31
2023-03-11T02:11:12.130Z,101013.69
2023-03-11T02:13:44.675Z,101052.22
2023-03-11T02:16:15.280Z,101038.47
2023-03-11T02:18:43.152Z,101018.88
2023-03-11T02:21:10.358Z,101078.13
2023-03-11T02:23:50.001Z,101012.00
2023-03-11T02:26:43.876Z,101083.56
2023-03-11T02:29:12.287Z,101060.59
2023-03-11T02:31:43.138Z,101016.84
2023-03-11T02:34:17.362Z,101023.84
2023-03-11T02:36:44.416Z,101012.97
2023-03-11T02:39:11.627Z,101012.00
2023-03-11T02:41:42.397Z,101031.91
2023-03-11T02:44:12.373Z,101009.63
2023-03-11T02:46:43.294Z,101019.06
2023-03-11T02:49:11.162Z,101067.25
2023-03-11T02:51:38.014Z,101038.97
2023-03-11T02:54:06.065Z,101006.22
2023-03-11T02:56:34.371Z,101031.91
2023-03-11T02:59:01.361Z,101041.59
2023-03-11T03:01:28.332Z,101020.97
2023-03-11T03:03:55.846Z,101007.22
2023-03-11T03:06:23.398Z,101039.13
2023-03-11T03:08:51.364Z,101046.16
2023-03-11T03:11:18.272Z,101062.41
2023-03-11T03:13:45.313Z,101024.78
2023-03-11T03:16:12.811Z,101041.19
2023-03-11T03:18:39.909Z,101073.72
2023-03-11T03:21:07.814Z,101078.06
2023-03-11T03:23:38.791Z,101071.16
2023-03-11T03:26:06.980Z,101101.41
2023-03-11T03:28:34.116Z,101043.81
2023-03-11T03:31:07.599Z,101042.31
2023-03-11T03:33:34.875Z,101115.22
2023-03-11T03:36:06.673Z,101088.00
2023-03-11T03:38:33.512Z,101104.53
2023-03-11T03:41:01.632Z,101104.63
2023-03-11T03:43:28.818Z,101098.81
2023-03-11T03:45:57.843Z,101070.50
2023-03-11T03:48:26.130Z,101113.59
2023-03-11T03:50:53.398Z,101084.44
2023-03-11T03:53:20.906Z,101095.59
2023-03-11T03:55:51.062Z,101099.84
2023-03-11T03:58:18.024Z,101140.38
2023-03-11T04:00:44.967Z,101100.00
2023-03-11T04:03:13.058Z,101167.91
2023-03-11T04:05:39.916Z,101098.34
2023-03-11T04:08:06.957Z,101113.97
2023-03-11T04:10:34.285Z,101133.69
2023-03-11T04:13:02.426Z,101173.22
2023-03-11T04:15:29.512Z,101106.97
2023-03-11T04:17:57.382Z,101167.19
2023-03-11T04:20:24.437Z,101109.53
2023-03-11T04:22:52.116Z,101150.84
2023-03-11T04:25:19.066Z,101169.63
2023-03-11T04:27:47.147Z,101125.25
2023-03-11T04:30:14.475Z,101119.91
2023-03-11T04:32:42.061Z,101157.69
2023-03-11T04:35:09.262Z,101119.03
2023-03-11T04:37:36.430Z,101163.69
2023-03-11T04:40:06.455Z,101186.03
2023-03-11T04:42:33.574Z,101189.47
2023-03-11T04:45:02.141Z,101174.13
2023-03-11T04:47:29.265Z,101166.38
2023-03-11T04:49:56.552Z,101169.69
2023-03-11T04:52:23.732Z,101130.38
2023-03-11T04:54:51.766Z,101138.09
2023-03-11T04:57:18.671Z,101168.25
2023-03-11T04:59:46.322Z,101193.09
2023-03-11T05:02:13.717Z,101177.69
2023-03-11T05:04:41.993Z,101185.41
2023-03-11T05:07:09.290Z,101156.28
2023-03-11T05:09:37.086Z,101156.13
2023-03-11T05:12:04.661Z,101141.75
2023-03-11T05:14:31.914Z,101164.31
2023-03-11T05:16:59.043Z,101137.22
2023-03-11T05:19:32.400Z,101216.34
2023-03-11T05:22:01.085Z,101156.22
2023-03-11T05:24:29.709Z,101209.78
2023-03-11T05:26:56.864Z,101216.09
2023-03-11T05:29:25.184Z,101179.44
2023-03-11T05:31:52.523Z,101216.66
2023-03-11T05:34:20.607Z,101148.81
2023-03-11T05:36:47.857Z,101196.34
2023-03-11T05:39:16.243Z,101156.03
2023-03-11T05:41:45.058Z,101161.22
2023-03-11T05:44:13.252Z,101183.66
2023-03-11T05:46:41.534Z,101189.00
2023-03-11T05:49:09.726Z,101206.44
2023-03-11T05:51:41.286Z,101238.34
2023-03-11T05:54:15.305Z,101180.66
2023-03-11T05:56:43.971Z,101168.69
2023-03-11T05:59:15.081Z,101206.66
2023-03-11T06:01:47.329Z,101184.34
2023-03-11T06:04:16.067Z,101183.56
2023-03-11T06:06:43.120Z,101229.25
2023-03-11T06:09:14.909Z,101235.38
2023-03-11T06:11:42.250Z,101230.28
2023-03-11T06:14:13.849Z,101261.28
2023-03-11T06:16:42.873Z,101268.22
2023-03-11T06:19:10.045Z,101205.41
2023-03-11T06:21:38.057Z,101208.91
2023-03-11T06:24:06.785Z,101214.09
2023-03-11T06:26:33.699Z,101275.25
2023-03-11T06:29:00.715Z,101248.66
2023-03-11T06:31:30.153Z,101236.63
2023-03-11T06:33:57.517Z,101203.03
2023-03-11T06:36:24.691Z,101249.56
2023-03-11T06:38:53.765Z,101228.03
2023-03-11T06:41:20.829Z,101284.03
2023-03-11T06:43:49.720Z,101286.59
2023-03-11T06:46:22.442Z,101256.44
2023-03-11T06:48:52.459Z,101286.56
2023-03-11T06:51:20.246Z,101254.69
2023-03-11T06:53:54.975Z,101241.81
2023-03-11T06:56:25.108Z,101257.31
2023-03-11T06:58:52.043Z,101254.72
2023-03-11T07:01:22.191Z,101302.97
2023-03-11T07:03:51.965Z,101240.03
2023-03-11T07:06:20.343Z,101308.94
2023-03-11T07:08:48.773Z,101259.84
2023-03-11T07:11:22.039Z,101259.78
2023-03-11T07:13:49.605Z,101259.75
2023-03-11T07:16:21.800Z,101250.31
2023-03-11T07:18:50.020Z,101316.56
2023-03-11T07:21:20.366Z,101302.72
2023-03-11T07:23:49.859Z,101269.84
2023-03-11T07:26:18.055Z,101305.03
2023-03-11T07:28:45.939Z,101267.13
2023-03-11T07:31:16.726Z,101323.00
2023-03-11T07:33:44.822Z,101309.94
2023-03-11T07:36:17.661Z,101271.09
2023-03-11T07:38:45.628Z,101264.88
2023-03-11T07:41:14.617Z,101282.16
2023-03-11T07:43:44.557Z,101317.41
2023-03-11T07:46:18.846Z,101318.97
2023-03-11T07:48:46.416Z,101330.84
2023-03-11T07:51:34.558Z,101316.72
2023-03-11T07:54:02.728Z,101321.72
2023-03-11T07:56:33.078Z,101277.53
2023-03-11T07:59:01.286Z,101292.84
2023-03-11T08:01:36.847Z,101311.50
2023-03-11T08:04:06.637Z,101343.25
2023-03-11T08:06:35.549Z,101327.75
2023-03-11T08:09:06.258Z,101337.81
2023-03-11T08:11:33.794Z,101340.41
2023-03-11T08:14:01.141Z,101318.88
2023-03-11T08:16:29.099Z,101326.53
2023-03-11T08:18:56.066Z,101310.75
2023-03-11T08:21:29.292Z,101351.97
2023-03-11T08:24:01.588Z,101336.38
2023-03-11T08:26:29.477Z,101318.41
2023-03-11T08:28:57.169Z,101351.81
2023-03-11T08:31:28.109Z,101357.03
2023-03-11T08:33:58.801Z,101387.84
2023-03-11T08:36:26.051Z,101380.00
2023-03-11T08:38:53.177Z,101342.13
2023-03-11T08:41:20.109Z,101360.06
2023-03-11T08:43:47.438Z,101315.25
2023-03-11T08:46:36.410Z,101371.13
2023-03-11T08:49:04.728Z,101394.31
2023-03-11T08:51:33.528Z,101402.78
2023-03-11T08:54:01.718Z,101376.59
2023-03-11T08:56:29.369Z,101402.28
2023-03-11T08:58:56.374Z,101399.50
2023-03-11T09:01:24.880Z,101362.66
2023-03-11T09:03:52.575Z,101414.03
2023-03-11T09:06:20.210Z,101367.47
2023-03-11T09:08:48.715Z,101387.81
2023-03-11T09:11:18.578Z,101403.28
2023-03-11T09:13:45.751Z,101377.53
2023-03-11T09:16:18.065Z,101384.19
2023-03-11T09:18:45.899Z,101407.06
2023-03-11T09:21:13.605Z,101352.94
2023-03-11T09:23:43.645Z,101424.53
2023-03-11T09:26:11.709Z,101372.84
2023-03-11T09:28:39.062Z,101424.34
2023-03-11T09:31:06.287Z,101383.56
2023-03-11T09:33:38.853Z,101407.38
2023-03-11T09:36:07.499Z,101383.97
2023-03-11T09:38:35.082Z,101396.72
2023-03-11T09:41:03.711Z,101412.84
2023-03-11T09:43:49.622Z,101413.72
2023-03-11T09:46:37.989Z,101416.16
2023-03-11T09:49:42.550Z,101419.63
2023-03-11T09:52:12.528Z,101413.22
2023-03-11T09:54:48.982Z,101412.00
2023-03-11T09:57:24.010Z,101404.50
2023-03-11T09:59:54.366Z,101421.53
2023-03-11T10:02:26.774Z,101361.13
2023-03-11T10:05:03.787Z,101403.13
2023-03-11T10:07:39.746Z,101387.53
2023-03-11T10:10:07.594Z,101414.16
2023-03-11T10:12:59.612Z,101414.63
2023-03-11T10:15:48.705Z,101412.72
2023-03-11T10:18:37.994Z,101417.69
2023-03-11T10:21:36.438Z,101392.72
2023-03-11T10:24:37.631Z,101416.72
2023-03-11T10:27:15.192Z,101359.88
2023-03-11T10:30:16.861Z,101414.75
2023-03-11T10:33:00.284Z,101392.41
2023-03-11T10:35:40.631Z,101382.16
2023-03-11T10:38:18.329Z,101384.06
2023-03-11T10:40:48.056Z,101413.03
2023-03-11T10:43:18.754Z,101411.31
2023-03-11T10:46:08.609Z,101418.75
2023-03-11T10:48:37.419Z,101412.81
2023-03-11T10:51:18.215Z,101370.75
2023-03-11T10:53:49.626Z,101404.88
2023-03-11T10:56:32.357Z,101359.44
2023-03-11T10:59:00.443Z,101405.78
2023-03-11T11:01:32.107Z,101393.06
2023-03-11T11:04:02.073Z,101412.56
2023-03-11T11:06:33.200Z,101436.72
2023-03-11T11:09:17.367Z,101408.38
2023-03-11T11:12:02.949Z,101427.06
2023-03-11T11:14:44.168Z,101375.59
2023-03-11T11:17:31.083Z,101435.81
2023-03-11T11:19:59.509Z,101437.31
2023-03-11T11:22:28.284Z,101403.72
2023-03-11T11:24:56.540Z,101390.00
2023-03-11T11:27:30.351Z,101418.94
2023-03-11T11:30:09.207Z,101436.91
2023-03-11T11:32:37.813Z,101381.16
2023-03-11T11:35:13.905Z,101429.03
2023-03-11T11:38:02.688Z,101432.78
2023-03-11T11:40:34.059Z,101411.28
2023-03-11T11:43:05.961Z,101410.41
2023-03-11T11:45:42.793Z,101385.19
2023-03-11T11:48:45.226Z,101402.19
2023-03-11T11:51:29.462Z,101385.53
2023-03-11T11:54:02.768Z,101429.72
2023-03-11T11:56:32.211Z,101430.94
2023-03-11T11:58:59.349Z,101373.50
2023-03-11T12:01:44.170Z,101389.19
2023-03-11T12:04:49.801Z,101416.19
2023-03-11T12:07:54.775Z,101421.16
2023-03-11T12:10:51.775Z,101402.81
2023-03-11T12:13:29.103Z,101413.81
2023-03-11T12:15:59.108Z,101418.91
2023-03-11T12:18:45.586Z,101389.91
2023-03-11T12:21:40.912Z,101394.19
2023-03-11T12:24:17.221Z,101420.31
2023-03-11T12:26:47.866Z,101418.09
2023-03-11T12:29:28.929Z,101373.69
2023-03-11T12:31:57.886Z,101419.63
2023-03-11T12:34:26.878Z,101379.34
2023-03-11T12:36:59.944Z,101364.66
2023-03-11T12:39:35.473Z,101417.75
2023-03-11T12:42:11.490Z,101417.41
2023-03-11T12:44:39.869Z,101361.47
2023-03-11T12:47:24.762Z,101405.13
2023-03-11T12:49:55.711Z,101421.59
2023-03-11T12:52:28.672Z,101421.25
2023-03-11T12:54:55.869Z,101413.59
2023-03-11T12:57:31.230Z,101420.22
2023-03-11T13:00:30.358Z,101378.19
2023-03-11T13:03:26.615Z,101404.78
2023-03-11T13:06:20.366Z,101411.56
2023-03-11T13:08:55.353Z,101381.38
2023-03-11T13:11:34.267Z,101403.44
2023-03-11T13:14:24.060Z,101400.94
2023-03-11T13:16:51.466Z,101377.91
2023-03-11T13:19:28.077Z,101405.09
2023-03-11T13:21:59.795Z,101355.50
2023-03-11T13:24:27.282Z,101407.28
2023-03-11T13:27:02.266Z,101407.47
2023-03-11T13:29:52.602Z,101409.06
2023-03-11T13:32:26.657Z,101409.72
2023-03-11T13:34:56.637Z,101405.22
2023-03-11T13:37:27.126Z,101395.16
2023-03-11T13:40:52.718Z,101411.47
2023-03-11T13:43:25.267Z,101351.97
2023-03-11T13:46:13.265Z,101388.75
2023-03-11T13:48:47.174Z,101381.59
2023-03-11T13:51:31.845Z,101406.38
2023-03-11T13:54:20.361Z,101405.72
2023-03-11T13:56:54.206Z,101394.69
2023-03-11T13:59:30.853Z,101427.50
2023-03-11T14:02:15.687Z,101401.34
2023-03-11T14:04:49.502Z,101416.78
2023-03-11T14:07:35.897Z,101427.56
2023-03-11T14:10:21.113Z,101433.56
2023-03-11T14:12:48.645Z,101386.13
2023-03-11T14:15:25.438Z,101414.28
2023-03-11T14:17:55.019Z,101416.22
2023-03-11T14:20:25.630Z,101397.03
2023-03-11T14:22:57.441Z,101431.34
2023-03-11T14:25:31.176Z,101440.44
2023-03-11T14:28:01.571Z,101439.03
2023-03-11T14:30:30.544Z,101437.25
2023-03-11T14:33:02.812Z,101452.13
2023-03-11T14:35:31.538Z,101390.31
2023-03-11T14:37:58.704Z,101421.81
2023-03-11T14:40:34.386Z,101448.34
2023-03-11T14:43:07.042Z,101450.25
2023-03-11T14:45:38.033Z,101450.97
2023-03-11T14:48:29.460Z,101450.69
2023-03-11T14:50:59.441Z,101453.38
2023-03-11T14:53:55.363Z,101454.53
2023-03-11T14:56:25.441Z,101451.66
2023-03-11T14:59:12.758Z,101452.75
2023-03-11T15:01:43.937Z,101450.00
2023-03-11T15:04:23.878Z,101439.81
2023-03-11T15:06:51.376Z,101443.09
2023-03-11T15:09:23.904Z,101448.56
2023-03-11T15:11:59.270Z,101447.53
2023-03-11T15:14:32.332Z,101454.69
2023-03-11T15:17:36.156Z,101450.69
2023-03-11T15:20:23.717Z,101450.84
2023-03-11T15:23:04.934Z,101455.19
2023-03-11T15:25:35.269Z,101448.34
2023-03-11T15:28:24.248Z,101445.72
2023-03-11T15:30:52.895Z,101450.91
2023-03-11T15:33:23.185Z,101440.22
2023-03-11T15:35:54.347Z,101447.31
2023-03-11T15:38:25.438Z,101434.91
2023-03-11T15:40:59.012Z,101437.75
2023-03-11T15:43:33.673Z,101436.09
2023-03-11T15:46:02.250Z,101443.03
2023-03-11T15:48:30.580Z,101438.78
2023-03-11T15:51:00.740Z,101440.06
2023-03-11T15:53:28.995Z,101440.06
2023-03-11T15:56:07.018Z,101429.81
2023-03-11T15:58:36.524Z,101438.97
2023-03-11T16:01:04.839Z,101444.13
2023-03-11T16:03:31.727Z,101431.06
2023-03-11T16:05:58.790Z,101438.22
2023-03-11T16:08:25.703Z,101442.69
2023-03-11T16:10:53.388Z,101438.41
2023-03-11T16:13:20.228Z,101445.38
2023-03-11T16:15:47.365Z,101438.22
2023-03-11T16:18:14.696Z,101403.63
2023-03-11T16:20:48.485Z,101446.53
2023-03-11T16:23:22.358Z,101437.94
2023-03-11T16:25:50.153Z,101402.38
2023-03-11T16:28:17.910Z,101439.66
2023-03-11T16:30:44.616Z,101439.69
2023-03-11T16:33:11.322Z,101417.50
2023-03-11T16:35:38.188Z,101448.72
2023-03-11T16:38:08.008Z,101427.28
2023-03-11T16:40:35.169Z,101425.66
2023-03-11T16:43:10.289Z,101424.06
2023-03-11T16:45:37.122Z,101446.69
2023-03-11T16:48:05.738Z,101423.81
2023-03-11T16:50:32.889Z,101444.47
2023-03-11T16:53:00.635Z,101450.78
2023-03-11T16:55:29.301Z,101452.59
2023-03-11T16:57:57.805Z,101455.53
2023-03-11T17:00:27.412Z,101460.09
2023-03-11T17:02:54.141Z,101447.31
2023-03-11T17:05:21.743Z,101459.44
2023-03-11T17:07:48.622Z,101439.50
2023-03-11T17:10:15.243Z,101451.78
2023-03-11T17:12:41.783Z,101449.25
2023-03-11T17:15:08.654Z,101436.66
2023-03-11T17:17:35.740Z,101469.75
2023-03-11T17:20:04.206Z,101455.16
2023-03-11T17:22:32.736Z,101456.13
2023-03-11T17:24:59.421Z,101449.63
2023-03-11T17:27:32.009Z,101464.63
2023-03-11T17:30:00.083Z,101469.25
2023-03-11T17:32:26.906Z,101464.91
2023-03-11T17:34:53.544Z,101462.47
2023-03-11T17:37:20.474Z,101439.63
2023-03-11T17:39:47.405Z,101452.66
2023-03-11T17:42:15.147Z,101464.06
2023-03-11T17:44:51.897Z,101463.88
2023-03-11T17:47:20.503Z,101461.53
2023-03-11T17:49:48.905Z,101484.03
2023-03-11T17:52:15.669Z,101489.44
2023-03-11T17:54:42.306Z,101494.03
2023-03-11T17:57:09.051Z,101498.44
2023-03-11T17:59:35.634Z,101506.44
2023-03-11T18:02:02.362Z,101484.13
2023-03-11T18:04:29.878Z,101494.59
2023-03-11T18:06:57.604Z,101487.03
2023-03-11T18:09:24.827Z,101478.66
2023-03-11T18:11:51.415Z,101486.44
2023-03-11T18:14:18.333Z,101475.47
2023-03-11T18:16:44.883Z,101484.97
2023-03-11T18:19:13.659Z,101497.16
2023-03-11T18:21:40.240Z,101507.72
2023-03-11T18:24:07.167Z,101503.41
2023-03-11T18:26:34.723Z,101502.59
2023-03-11T18:29:01.821Z,101516.50
2023-03-11T18:31:30.543Z,101503.63
2023-03-11T18:34:00.336Z,101508.03
2023-03-11T18:36:30.016Z,101502.03
2023-03-11T18:38:58.373Z,101502.09
2023-03-11T18:41:26.336Z,101515.28
2023-03-11T18:43:54.509Z,101516.25
2023-03-11T18:46:21.243Z,101517.25
2023-03-11T18:48:49.104Z,101495.69
2023-03-11T18:51:16.521Z,101503.50
2023-03-11T18:53:43.168Z,101507.88
2023-03-11T18:56:13.740Z,101502.72
2023-03-11T18:58:40.806Z,101498.75
2023-03-11T19:01:12.520Z,101519.50
2023-03-11T19:03:41.146Z,101468.69
2023-03-11T19:06:12.335Z,101468.75
2023-03-11T19:08:40.167Z,101446.50
2023-03-11T19:11:12.529Z,101454.25
2023-03-11T19:13:47.152Z,101459.56
2023-03-11T19:16:17.697Z,101507.78
2023-03-11T19:18:46.158Z,101509.59
2023-03-11T19:21:14.854Z,101455.44
2023-03-11T19:23:42.606Z,101505.41
2023-03-11T19:26:11.190Z,101438.34
2023-03-11T19:28:38.026Z,101511.59
2023-03-11T19:31:05.905Z,101441.16
2023-03-11T19:33:34.629Z,101440.41
2023-03-11T19:36:02.727Z,101493.84
2023-03-11T19:38:31.039Z,101464.81
2023-03-11T19:41:05.829Z,101504.53
2023-03-11T19:43:37.109Z,101502.03
2023-03-11T19:46:06.031Z,101503.00
2023-03-11T19:48:33.504Z,101475.47
2023-03-11T19:51:02.398Z,101441.13
2023-03-11T19:53:29.772Z,101438.66
2023-03-11T19:55:57.547Z,101491.25
2023-03-11T19:58:31.343Z,101439.63
2023-03-11T20:00:59.443Z,101444.13
2023-03-11T20:03:27.273Z,101433.84
2023-03-11T20:05:56.963Z,101502.78
2023-03-11T20:08:26.937Z,101436.56
2023-03-11T20:10:54.234Z,101435.81
2023-03-11T20:13:22.321Z,101485.03
2023-03-11T20:15:50.753Z,101504.00
2023-03-11T20:18:18.391Z,101500.63
2023-03-11T20:20:47.014Z,101504.94
2023-03-11T20:23:14.281Z,101511.13
2023-03-11T20:25:42.036Z,101476.75
2023-03-11T20:28:10.215Z,101442.38
2023-03-11T20:30:39.632Z,101488.94
2023-03-11T20:33:08.330Z,101481.19
2023-03-11T20:35:36.650Z,101506.16
2023-03-11T20:38:04.163Z,101453.88
2023-03-11T20:40:34.431Z,101486.56
2023-03-11T20:43:02.466Z,101501.25
2023-03-11T20:45:29.551Z,101440.91
2023-03-11T20:47:57.523Z,101439.19
2023-03-11T20:50:24.760Z,101482.31
2023-03-11T20:52:52.067Z,101428.84
2023-03-11T20:55:19.989Z,101472.03
2023-03-11T20:57:47.060Z,101485.00
2023-03-11T21:00:14.618Z,101489.28
2023-03-11T21:02:43.378Z,101449.59
2023-03-11T21:05:12.793Z,101482.19
2023-03-11T21:07:42.837Z,101440.91
2023-03-11T21:10:12.327Z,101432.22
2023-03-11T21:12:39.719Z,101480.41
2023-03-11T21:15:08.541Z,101453.66
2023-03-11T21:17:36.144Z,101482.03
2023-03-11T21:20:06.677Z,101457.03
2023-03-11T21:22:34.868Z,101425.13
2023-03-11T21:25:01.932Z,101461.22
2023-03-11T21:27:29.156Z,101418.28
2023-03-11T21:29:57.173Z,101422.47
2023-03-11T21:32:26.704Z,101467.28
2023-03-11T21:34:58.118Z,101434.56
2023-03-11T21:37:26.441Z,101437.13
2023-03-11T21:39:54.592Z,101443.97
2023-03-11T21:42:22.231Z,101459.53
2023-03-11T21:44:51.691Z,101413.72
2023-03-11T21:47:20.024Z,101485.25
2023-03-11T21:49:47.107Z,101412.06
2023-03-11T21:52:14.444Z,101452.50
2023-03-11T21:54:42.175Z,101474.09
2023-03-11T21:57:09.587Z,101416.44
2023-03-11T21:59:36.903Z,101460.44
2023-03-11T22:02:05.234Z,101407.00
2023-03-11T22:04:33.792Z,101405.31
2023-03-11T22:07:01.005Z,101478.56
2023-03-11T22:09:28.678Z,101478.63
2023-03-11T22:11:56.460Z,101457.16
2023-03-11T22:14:24.698Z,101414.13
2023-03-11T22:16:52.054Z,101464.94
2023-03-11T22:19:19.295Z,101415.91
2023-03-11T22:21:46.341Z,101431.28
2023-03-11T22:24:13.988Z,101457.16
2023-03-11T22:26:41.185Z,101418.28
2023-03-11T22:29:09.056Z,101405.28
2023-03-11T22:31:36.162Z,101411.31
2023-03-11T22:34:03.350Z,101425.03
2023-03-11T22:36:30.413Z,101433.56
2023-03-11T22:38:57.527Z,101410.19
2023-03-11T22:41:24.605Z,101398.00
2023-03-11T22:43:52.067Z,101465.09
2023-03-11T22:46:19.768Z,101448.69
2023-03-11T22:48:47.074Z,101452.09
2023-03-11T22:51:18.601Z,101447.66
2023-03-11T22:53:45.635Z,101438.22
2023-03-11T22:56:19.307Z,101433.13
2023-03-11T22:58:47.194Z,101430.53
2023-03-11T23:01:14.484Z,101384.81
2023-03-11T23:03:43.274Z,101394.34
2023-03-11T23:06:21.760Z,101442.44
2023-03-11T23:08:49.060Z,101384.75
2023-03-11T23:11:18.841Z,101389.06
2023-03-11T23:13:45.916Z,101434.63
2023-03-11T23:16:17.182Z,101378.50
2023-03-11T23:18:48.022Z,101399.19
2023-03-11T23:21:18.904Z,101418.16
2023-03-11T23:23:46.973Z,101409.38
2023-03-11T23:26:15.649Z,101411.94
2023-03-11T23:28:42.944Z,101438.53
2023-03-11T23:31:13.740Z,101373.16
2023-03-11T23:33:42.084Z,101390.34
2023-03-11T23:36:12.792Z,101413.69
2023-03-11T23:38:40.319Z,101351.72
2023-03-11T23:41:09.220Z,101397.47
2023-03-11T23:43:37.678Z,101355.34
2023-03-11T23:46:06.448Z,101400.13
2023-03-11T23:48:34.345Z,101354.53
2023-03-11T23:51:01.864Z,101393.25
2023-03-11T23:53:29.189Z,101415.63
2023-03-11T23:55:56.388Z,101348.53
2023-03-11T23:58:25.147Z,101356.25
